Maui, HI

6:31 PM HST on September 28, 2016 (GMT -1000)
Wailuku Kehalani | | Change Station

Elev 259 ft 20.87 °N, 156.50 °W | Updated 8 seconds ago

Scattered Clouds
Scattered Clouds
79.0 °F
Feels Like 83 °F
N
8.7
Wind Variable Wind from North
Gusts 12.3 mph

Today
High -- | Low -- °F
--% Chance of Precip.
Yesterday
High -- | Low -- °F
Precip. -- in
Pressure 29.91 in
Visibility 10.0 miles
Clouds Few 3000 ft
Scattered Clouds 5000 ft
Heat Index 83 °F
Dew Point 74 °F
Humidity 85%
Rainfall 0.00 in
Snow Depth Not available.
6:16 AM 6:15 PM
Waning Crescent, 3% visible
METAR PHOG 290354Z 06018G28KT 10SM FEW030 SCT050 26/20 A2989 RMK AO2 PK WND 07030/0305 SLP126 T02610200 $
Pressure 29.91 in
Visibility 10.0 miles
Clouds Few 3000 ft
Scattered Clouds 5000 ft
Heat Index 83 °F
Dew Point 74 °F
Humidity 85%
Rainfall 0.00 in
Snow Depth Not available.
6:16 AM 6:15 PM
Waning Crescent, 3% visible
METAR PHOG 290354Z 06018G28KT 10SM FEW030 SCT050 26/20 A2989 RMK AO2 PK WND 07030/0305 SLP126 T02610200 $

10-Day Weather Forecast

Almanac

Astronomy

Sep. 28, 2016 Rise Set
Actual Time
Civil Twilight
Nautical Twilight
Astronomical Twilight
Moon
Length of Visible Light
Length of Day
Tomorrow will be .
, % of the Moon is Illuminated

Today's Extremes

State Highs State Lows

Community

WunderPhotos

Upload Photos

1,942,432 photos uploaded!

WunderBlog® & News

Nearby

Air Quality

  Air Quality AQ Index Pollutant
Not available.

Snow Depth

Station Depth Elevation

Earthquake Activity

City Distance Mag. Time & Date
Minimum magnitude displayed is 2.5.

Coastal Water Temperatures

Place Temperature

Stations

Nearby Weather Stations

Station Location Temp. Windchill Dew Point Humidity Wind Precip. Elev Updated Type
                   

Watches & Warnings

There are currently no watches in effect.